sensor_id;sensor_type;location;lat;lon;timestamp;temperature;humidity
69225;DHT22;56333;51.306;17.056;2023-04-06T00:00:50;0.31;74.75
69225;DHT22;56333;51.306;17.056;2023-04-06T00:02:20;0.31;74.57
69225;DHT22;56333;51.306;17.056;2023-04-06T00:03:49;0.31;74.40
69225;DHT22;56333;51.306;17.056;2023-04-06T00:05:19;0.28;74.20
69225;DHT22;56333;51.306;17.056;2023-04-06T00:06:48;0.28;74.10
69225;DHT22;56333;51.306;17.056;2023-04-06T00:08:17;0.27;73.90
69225;DHT22;56333;51.306;17.056;2023-04-06T00:09:48;0.23;73.75
69225;DHT22;56333;51.306;17.056;2023-04-06T00:11:17;0.22;73.65
69225;DHT22;56333;51.306;17.056;2023-04-06T00:12:47;0.18;73.63
69225;DHT22;56333;51.306;17.056;2023-04-06T00:14:16;0.16;73.63
69225;DHT22;56333;51.306;17.056;2023-04-06T00:15:45;0.15;73.70
69225;DHT22;56333;51.306;17.056;2023-04-06T00:17:14;0.14;73.90
69225;DHT22;56333;51.306;17.056;2023-04-06T00:18:43;0.15;74.03
69225;DHT22;56333;51.306;17.056;2023-04-06T00:20:13;0.17;74.20
69225;DHT22;56333;51.306;17.056;2023-04-06T00:21:44;0.17;74.28
69225;DHT22;56333;51.306;17.056;2023-04-06T00:23:13;0.19;74.25
69225;DHT22;56333;51.306;17.056;2023-04-06T00:24:42;0.17;74.10
69225;DHT22;56333;51.306;17.056;2023-04-06T00:26:11;0.16;73.85
69225;DHT22;56333;51.306;17.056;2023-04-06T00:27:42;0.14;73.68
69225;DHT22;56333;51.306;17.056;2023-04-06T00:29:12;0.11;73.57
69225;DHT22;56333;51.306;17.056;2023-04-06T00:30:42;0.09;73.57
69225;DHT22;56333;51.306;17.056;2023-04-06T00:32:11;0.05;73.40
69225;DHT22;56333;51.306;17.056;2023-04-06T00:33:41;0.03;73.38
69225;DHT22;56333;51.306;17.056;2023-04-06T00:35:10;0.01;73.32
69225;DHT22;56333;51.306;17.056;2023-04-06T00:36:40;0.00;73.28
69225;DHT22;56333;51.306;17.056;2023-04-06T00:38:09;-0.02;73.15
69225;DHT22;56333;51.306;17.056;2023-04-06T00:39:39;-0.05;73.18
69225;DHT22;56333;51.306;17.056;2023-04-06T00:41:09;-0.06;73.38
69225;DHT22;56333;51.306;17.056;2023-04-06T00:42:38;-0.07;73.72
69225;DHT22;56333;51.306;17.056;2023-04-06T00:44:08;-0.06;73.97
69225;DHT22;56333;51.306;17.056;2023-04-06T00:45:37;-0.05;74.18
69225;DHT22;56333;51.306;17.056;2023-04-06T00:47:07;-0.06;74.13
69225;DHT22;56333;51.306;17.056;2023-04-06T00:48:36;-0.07;74.05
69225;DHT22;56333;51.306;17.056;2023-04-06T00:50:07;-0.08;73.97
69225;DHT22;56333;51.306;17.056;2023-04-06T00:51:36;-0.08;73.90
69225;DHT22;56333;51.306;17.056;2023-04-06T00:53:05;-0.09;73.90
69225;DHT22;56333;51.306;17.056;2023-04-06T00:54:34;-0.11;73.80
69225;DHT22;56333;51.306;17.056;2023-04-06T00:56:03;-0.14;73.75
69225;DHT22;56333;51.306;17.056;2023-04-06T00:57:43;-0.19;73.68
69225;DHT22;56333;51.306;17.056;2023-04-06T00:59:12;-0.20;73.60
69225;DHT22;56333;51.306;17.056;2023-04-06T01:00:41;-0.24;73.47
69225;DHT22;56333;51.306;17.056;2023-04-06T01:02:14;-0.28;73.47
69225;DHT22;56333;51.306;17.056;2023-04-06T01:03:45;-0.29;73.50
69225;DHT22;56333;51.306;17.056;2023-04-06T01:05:15;-0.28;73.75
69225;DHT22;56333;51.306;17.056;2023-04-06T01:06:48;-0.27;74.03
69225;DHT22;56333;51.306;17.056;2023-04-06T01:08:20;-0.23;74.22
69225;DHT22;56333;51.306;17.056;2023-04-06T01:09:54;-0.22;74.40
69225;DHT22;56333;51.306;17.056;2023-04-06T01:11:23;-0.21;74.20
69225;DHT22;56333;51.306;17.056;2023-04-06T01:12:53;-0.20;74.10
69225;DHT22;56333;51.306;17.056;2023-04-06T01:15:15;-0.24;73.88
69225;DHT22;56333;51.306;17.056;2023-04-06T01:16:47;-0.23;73.60
69225;DHT22;56333;51.306;17.056;2023-04-06T01:18:26;-0.27;73.53
69225;DHT22;56333;51.306;17.056;2023-04-06T01:20:08;-0.32;73.45
69225;DHT22;56333;51.306;17.056;2023-04-06T01:21:37;-0.33;73.40
69225;DHT22;56333;51.306;17.056;2023-04-06T01:23:30;-0.37;73.50
69225;DHT22;56333;51.306;17.056;2023-04-06T01:24:59;-0.40;73.45
69225;DHT22;56333;51.306;17.056;2023-04-06T01:26:41;-0.42;73.55
69225;DHT22;56333;51.306;17.056;2023-04-06T01:28:10;-0.48;73.40
69225;DHT22;56333;51.306;17.056;2023-04-06T01:29:51;-0.48;73.45
69225;DHT22;56333;51.306;17.056;2023-04-06T01:31:32;-0.50;73.68
69225;DHT22;56333;51.306;17.056;2023-04-06T01:33:02;-0.49;73.93
69225;DHT22;56333;51.306;17.056;2023-04-06T01:34:50;-0.47;74.10
69225;DHT22;56333;51.306;17.056;2023-04-06T01:36:20;-0.44;74.25
69225;DHT22;56333;51.306;17.056;2023-04-06T01:38:01;-0.45;74.15
69225;DHT22;56333;51.306;17.056;2023-04-06T01:39:31;-0.44;73.95
69225;DHT22;56333;51.306;17.056;2023-04-06T01:41:01;-0.45;73.82
69225;DHT22;56333;51.306;17.056;2023-04-06T01:42:38;-0.47;73.65
69225;DHT22;56333;51.306;17.056;2023-04-06T01:44:08;-0.48;73.55
69225;DHT22;56333;51.306;17.056;2023-04-06T01:45:38;-0.50;73.55
69225;DHT22;56333;51.306;17.056;2023-04-06T01:47:12;-0.52;73.57
69225;DHT22;56333;51.306;17.056;2023-04-06T01:48:42;-0.55;73.68
69225;DHT22;56333;51.306;17.056;2023-04-06T01:50:21;-0.58;73.85
69225;DHT22;56333;51.306;17.056;2023-04-06T01:51:50;-0.59;73.93
69225;DHT22;56333;51.306;17.056;2023-04-06T01:53:19;-0.59;74.03
69225;DHT22;56333;51.306;17.056;2023-04-06T01:54:49;-0.58;74.20
69225;DHT22;56333;51.306;17.056;2023-04-06T01:56:36;-0.56;74.38
69225;DHT22;56333;51.306;17.056;2023-04-06T01:59:01;-0.54;74.53
69225;DHT22;56333;51.306;17.056;2023-04-06T02:00:35;-0.50;74.78
69225;DHT22;56333;51.306;17.056;2023-04-06T02:02:05;-0.47;74.70
69225;DHT22;56333;51.306;17.056;2023-04-06T02:03:35;-0.44;74.55
69225;DHT22;56333;51.306;17.056;2023-04-06T02:05:08;-0.44;74.40
69225;DHT22;56333;51.306;17.056;2023-04-06T02:06:37;-0.44;74.30
69225;DHT22;56333;51.306;17.056;2023-04-06T02:08:07;-0.44;74.20
69225;DHT22;56333;51.306;17.056;2023-04-06T02:09:37;-0.45;74.10
69225;DHT22;56333;51.306;17.056;2023-04-06T02:11:10;-0.44;74.00
69225;DHT22;56333;51.306;17.056;2023-04-06T02:12:43;-0.46;73.80
69225;DHT22;56333;51.306;17.056;2023-04-06T02:14:16;-0.48;73.70
69225;DHT22;56333;51.306;17.056;2023-04-06T02:15:48;-0.50;73.70
69225;DHT22;56333;51.306;17.056;2023-04-06T02:17:18;-0.51;73.75
69225;DHT22;56333;51.306;17.056;2023-04-06T02:18:48;-0.52;73.88
69225;DHT22;56333;51.306;17.056;2023-04-06T02:20:18;-0.53;74.03
69225;DHT22;56333;51.306;17.056;2023-04-06T02:21:49;-0.52;74.22
69225;DHT22;56333;51.306;17.056;2023-04-06T02:23:18;-0.51;74.38
69225;DHT22;56333;51.306;17.056;2023-04-06T02:24:47;-0.50;74.47
69225;DHT22;56333;51.306;17.056;2023-04-06T02:26:17;-0.49;74.45
69225;DHT22;56333;51.306;17.056;2023-04-06T02:27:45;-0.49;74.32
69225;DHT22;56333;51.306;17.056;2023-04-06T02:29:15;-0.49;74.22
69225;DHT22;56333;51.306;17.056;2023-04-06T02:30:45;-0.52;74.13
69225;DHT22;56333;51.306;17.056;2023-04-06T02:32:14;-0.53;74.03
69225;DHT22;56333;51.306;17.056;2023-04-06T02:33:44;-0.55;73.97
69225;DHT22;56333;51.306;17.056;2023-04-06T02:35:14;-0.57;73.93
69225;DHT22;56333;51.306;17.056;2023-04-06T02:36:46;-0.58;73.88
69225;DHT22;56333;51.306;17.056;2023-04-06T02:38:15;-0.61;73.82
69225;DHT22;56333;51.306;17.056;2023-04-06T02:39:45;-0.63;73.75
69225;DHT22;56333;51.306;17.056;2023-04-06T02:41:14;-0.66;73.75
69225;DHT22;56333;51.306;17.056;2023-04-06T02:42:43;-0.66;73.88
69225;DHT22;56333;51.306;17.056;2023-04-06T02:44:12;-0.67;74.07
69225;DHT22;56333;51.306;17.056;2023-04-06T02:45:42;-0.65;74.28
69225;DHT22;56333;51.306;17.056;2023-04-06T02:47:12;-0.64;74.55
69225;DHT22;56333;51.306;17.056;2023-04-06T02:48:44;-0.62;74.72
69225;DHT22;56333;51.306;17.056;2023-04-06T02:50:13;-0.61;74.63
69225;DHT22;56333;51.306;17.056;2023-04-06T02:51:49;-0.59;74.53
69225;DHT22;56333;51.306;17.056;2023-04-06T02:53:24;-0.57;74.50
69225;DHT22;56333;51.306;17.056;2023-04-06T02:54:54;-0.58;74.38
69225;DHT22;56333;51.306;17.056;2023-04-06T02:56:26;-0.61;74.28
69225;DHT22;56333;51.306;17.056;2023-04-06T02:57:55;-0.61;74.18
69225;DHT22;56333;51.306;17.056;2023-04-06T02:59:27;-0.63;74.22
69225;DHT22;56333;51.306;17.056;2023-04-06T03:01:05;-0.64;74.28
69225;DHT22;56333;51.306;17.056;2023-04-06T03:02:36;-0.64;74.22
69225;DHT22;56333;51.306;17.056;2023-04-06T03:04:08;-0.64;74.20
69225;DHT22;56333;51.306;17.056;2023-04-06T03:05:38;-0.65;74.20
69225;DHT22;56333;51.306;17.056;2023-04-06T03:07:07;-0.64;74.38
69225;DHT22;56333;51.306;17.056;2023-04-06T03:08:37;-0.63;74.65
69225;DHT22;56333;51.306;17.056;2023-04-06T03:10:09;-0.61;74.88
69225;DHT22;56333;51.306;17.056;2023-04-06T03:11:39;-0.55;75.03
69225;DHT22;56333;51.306;17.056;2023-04-06T03:13:09;-0.54;74.88
69225;DHT22;56333;51.306;17.056;2023-04-06T03:14:45;-0.52;74.70
69225;DHT22;56333;51.306;17.056;2023-04-06T03:16:14;-0.53;74.50
69225;DHT22;56333;51.306;17.056;2023-04-06T03:17:44;-0.52;74.38
69225;DHT22;56333;51.306;17.056;2023-04-06T03:19:26;-0.53;74.25
69225;DHT22;56333;51.306;17.056;2023-04-06T03:20:56;-0.53;74.22
69225;DHT22;56333;51.306;17.056;2023-04-06T03:22:32;-0.53;74.10
69225;DHT22;56333;51.306;17.056;2023-04-06T03:24:02;-0.54;74.00
69225;DHT22;56333;51.306;17.056;2023-04-06T03:25:32;-0.54;73.88
69225;DHT22;56333;51.306;17.056;2023-04-06T03:27:04;-0.55;73.80
69225;DHT22;56333;51.306;17.056;2023-04-06T03:28:33;-0.56;73.70
69225;DHT22;56333;51.306;17.056;2023-04-06T03:30:04;-0.56;73.68
69225;DHT22;56333;51.306;17.056;2023-04-06T03:31:36;-0.56;73.82
69225;DHT22;56333;51.306;17.056;2023-04-06T03:33:19;-0.56;73.95
69225;DHT22;56333;51.306;17.056;2023-04-06T03:34:52;-0.55;74.15
69225;DHT22;56333;51.306;17.056;2023-04-06T03:36:22;-0.54;74.28
69225;DHT22;56333;51.306;17.056;2023-04-06T03:37:53;-0.53;74.22
69225;DHT22;56333;51.306;17.056;2023-04-06T03:39:23;-0.52;74.03
69225;DHT22;56333;51.306;17.056;2023-04-06T03:40:52;-0.54;73.80
69225;DHT22;56333;51.306;17.056;2023-04-06T03:42:24;-0.56;73.65
69225;DHT22;56333;51.306;17.056;2023-04-06T03:43:58;-0.56;73.55
69225;DHT22;56333;51.306;17.056;2023-04-06T03:45:27;-0.61;73.43
69225;DHT22;56333;51.306;17.056;2023-04-06T03:46:57;-0.63;73.40
69225;DHT22;56333;51.306;17.056;2023-04-06T03:48:26;-0.64;73.35
69225;DHT22;56333;51.306;17.056;2023-04-06T03:49:58;-0.67;73.32
69225;DHT22;56333;51.306;17.056;2023-04-06T03:51:28;-0.69;73.32
69225;DHT22;56333;51.306;17.056;2023-04-06T03:52:57;-0.71;73.28
69225;DHT22;56333;51.306;17.056;2023-04-06T03:54:27;-0.73;73.30
69225;DHT22;56333;51.306;17.056;2023-04-06T03:55:57;-0.73;73.53
69225;DHT22;56333;51.306;17.056;2023-04-06T03:57:26;-0.72;73.75
69225;DHT22;56333;51.306;17.056;2023-04-06T03:58:55;-0.72;73.93
69225;DHT22;56333;51.306;17.056;2023-04-06T04:00:24;-0.69;74.00
69225;DHT22;56333;51.306;17.056;2023-04-06T04:01:53;-0.70;73.93
69225;DHT22;56333;51.306;17.056;2023-04-06T04:03:24;-0.69;73.75
69225;DHT22;56333;51.306;17.056;2023-04-06T04:04:53;-0.66;73.63
69225;DHT22;56333;51.306;17.056;2023-04-06T04:06:22;-0.67;73.43
69225;DHT22;56333;51.306;17.056;2023-04-06T04:07:51;-0.67;73.28
69225;DHT22;56333;51.306;17.056;2023-04-06T04:09:23;-0.68;73.13
69225;DHT22;56333;51.306;17.056;2023-04-06T04:10:52;-0.70;73.00
69225;DHT22;56333;51.306;17.056;2023-04-06T04:12:21;-0.72;72.90
69225;DHT22;56333;51.306;17.056;2023-04-06T04:13:51;-0.75;72.88
69225;DHT22;56333;51.306;17.056;2023-04-06T04:15:20;-0.77;72.82
69225;DHT22;56333;51.306;17.056;2023-04-06T04:16:50;-0.79;72.80
69225;DHT22;56333;51.306;17.056;2023-04-06T04:18:19;-0.81;72.78
69225;DHT22;56333;51.306;17.056;2023-04-06T04:19:49;-0.83;72.85
69225;DHT22;56333;51.306;17.056;2023-04-06T04:21:18;-0.83;73.13
69225;DHT22;56333;51.306;17.056;2023-04-06T04:22:47;-0.83;73.40
69225;DHT22;56333;51.306;17.056;2023-04-06T04:24:16;-0.80;73.63
69225;DHT22;56333;51.306;17.056;2023-04-06T04:25:46;-0.79;73.80
69225;DHT22;56333;51.306;17.056;2023-04-06T04:27:16;-0.75;73.75
69225;DHT22;56333;51.306;17.056;2023-04-06T04:28:46;-0.75;73.53
69225;DHT22;56333;51.306;17.056;2023-04-06T04:30:15;-0.74;73.40
69225;DHT22;56333;51.306;17.056;2023-04-06T04:31:44;-0.74;73.20
69225;DHT22;56333;51.306;17.056;2023-04-06T04:33:14;-0.72;73.10
69225;DHT22;56333;51.306;17.056;2023-04-06T04:34:43;-0.72;73.00
69225;DHT22;56333;51.306;17.056;2023-04-06T04:36:20;-0.71;72.90
69225;DHT22;56333;51.306;17.056;2023-04-06T04:37:50;-0.71;72.78
69225;DHT22;56333;51.306;17.056;2023-04-06T04:39:20;-0.68;72.72
69225;DHT22;56333;51.306;17.056;2023-04-06T04:40:55;-0.67;72.65
69225;DHT22;56333;51.306;17.056;2023-04-06T04:42:23;-0.62;72.60
69225;DHT22;56333;51.306;17.056;2023-04-06T04:43:54;-0.58;72.55
69225;DHT22;56333;51.306;17.056;2023-04-06T04:45:24;-0.50;72.50
69225;DHT22;56333;51.306;17.056;2023-04-06T04:46:53;-0.40;72.57
69225;DHT22;56333;51.306;17.056;2023-04-06T04:48:26;-0.21;72.70
69225;DHT22;56333;51.306;17.056;2023-04-06T04:49:58;0.03;72.65
69225;DHT22;56333;51.306;17.056;2023-04-06T04:51:28;0.30;72.28
69225;DHT22;56333;51.306;17.056;2023-04-06T04:53:07;0.57;72.28
69225;DHT22;56333;51.306;17.056;2023-04-06T04:54:36;0.82;71.97
69225;DHT22;56333;51.306;17.056;2023-04-06T04:56:06;1.07;71.53
69225;DHT22;56333;51.306;17.056;2023-04-06T04:57:35;1.29;71.13
69225;DHT22;56333;51.306;17.056;2023-04-06T04:59:04;1.49;70.70
69225;DHT22;56333;51.306;17.056;2023-04-06T05:00:35;1.65;69.18
69225;DHT22;56333;51.306;17.056;2023-04-06T05:02:04;1.82;68.95
69225;DHT22;56333;51.306;17.056;2023-04-06T05:03:39;2.00;67.93
69225;DHT22;56333;51.306;17.056;2023-04-06T05:05:11;2.12;68.20
69225;DHT22;56333;51.306;17.056;2023-04-06T05:06:41;2.14;67.72
69225;DHT22;56333;51.306;17.056;2023-04-06T05:08:11;2.15;68.65
69225;DHT22;56333;51.306;17.056;2023-04-06T05:09:43;2.14;68.22
69225;DHT22;56333;51.306;17.056;2023-04-06T05:11:12;2.15;68.47
69225;DHT22;56333;51.306;17.056;2023-04-06T05:12:44;2.13;68.35
69225;DHT22;56333;51.306;17.056;2023-04-06T05:14:13;2.13;68.50
69225;DHT22;56333;51.306;17.056;2023-04-06T05:15:42;2.12;68.60
69225;DHT22;56333;51.306;17.056;2023-04-06T05:17:20;2.11;68.65
69225;DHT22;56333;51.306;17.056;2023-04-06T05:18:50;2.09;68.80
69225;DHT22;56333;51.306;17.056;2023-04-06T05:20:22;2.10;68.78
69225;DHT22;56333;51.306;17.056;2023-04-06T05:21:52;2.10;68.78
69225;DHT22;56333;51.306;17.056;2023-04-06T05:23:23;2.11;68.65
69225;DHT22;56333;51.306;17.056;2023-04-06T05:24:53;2.11;68.65
69225;DHT22;56333;51.306;17.056;2023-04-06T05:26:23;2.13;68.75
69225;DHT22;56333;51.306;17.056;2023-04-06T05:27:56;2.13;68.75
69225;DHT22;56333;51.306;17.056;2023-04-06T05:29:32;2.15;68.80
69225;DHT22;56333;51.306;17.056;2023-04-06T05:31:02;2.16;68.85
69225;DHT22;56333;51.306;17.056;2023-04-06T05:32:39;2.18;68.90
69225;DHT22;56333;51.306;17.056;2023-04-06T05:34:09;2.21;68.88
69225;DHT22;56333;51.306;17.056;2023-04-06T05:35:38;2.20;68.85
69225;DHT22;56333;51.306;17.056;2023-04-06T05:37:08;2.21;68.95
69225;DHT22;56333;51.306;17.056;2023-04-06T05:38:38;2.22;69.35
69225;DHT22;56333;51.306;17.056;2023-04-06T05:40:18;2.29;69.72
69225;DHT22;56333;51.306;17.056;2023-04-06T05:41:49;2.36;70.00
69225;DHT22;56333;51.306;17.056;2023-04-06T05:43:32;2.44;70.20
69225;DHT22;56333;51.306;17.056;2023-04-06T05:45:02;2.51;70.22
69225;DHT22;56333;51.306;17.056;2023-04-06T05:46:36;2.55;69.90
69225;DHT22;56333;51.306;17.056;2023-04-06T05:48:09;2.57;69.70
69225;DHT22;56333;51.306;17.056;2023-04-06T05:49:40;2.59;69.55
69225;DHT22;56333;51.306;17.056;2023-04-06T05:51:16;2.63;69.57
69225;DHT22;56333;51.306;17.056;2023-04-06T05:52:46;2.67;69.47
69225;DHT22;56333;51.306;17.056;2023-04-06T05:54:17;2.71;69.35
69225;DHT22;56333;51.306;17.056;2023-04-06T05:55:48;2.76;69.20
69225;DHT22;56333;51.306;17.056;2023-04-06T05:57:18;2.79;69.07
69225;DHT22;56333;51.306;17.056;2023-04-06T05:58:48;2.83;68.72
69225;DHT22;56333;51.306;17.056;2023-04-06T06:00:22;2.85;68.68
69225;DHT22;56333;51.306;17.056;2023-04-06T06:01:55;2.88;68.45
69225;DHT22;56333;51.306;17.056;2023-04-06T06:03:26;2.89;68.40
69225;DHT22;56333;51.306;17.056;2023-04-06T06:04:54;2.89;68.57
69225;DHT22;56333;51.306;17.056;2023-04-06T06:06:24;2.93;68.35
69225;DHT22;56333;51.306;17.056;2023-04-06T06:08:11;2.94;68.10
69225;DHT22;56333;51.306;17.056;2023-04-06T06:09:40;2.95;67.90
69225;DHT22;56333;51.306;17.056;2023-04-06T06:11:22;2.95;67.88
69225;DHT22;56333;51.306;17.056;2023-04-06T06:12:51;2.98;67.82
69225;DHT22;56333;51.306;17.056;2023-04-06T06:14:21;2.99;67.53
69225;DHT22;56333;51.306;17.056;2023-04-06T06:15:52;3.02;67.50
69225;DHT22;56333;51.306;17.056;2023-04-06T06:17:21;3.05;67.50
69225;DHT22;56333;51.306;17.056;2023-04-06T06:18:50;3.08;67.10
69225;DHT22;56333;51.306;17.056;2023-04-06T06:20:19;3.09;66.30
69225;DHT22;56333;51.306;17.056;2023-04-06T06:21:49;3.11;66.68
69225;DHT22;56333;51.306;17.056;2023-04-06T06:23:17;3.13;66.72
69225;DHT22;56333;51.306;17.056;2023-04-06T06:24:47;3.17;66.93
69225;DHT22;56333;51.306;17.056;2023-04-06T06:26:17;3.22;66.85
69225;DHT22;56333;51.306;17.056;2023-04-06T06:27:47;3.24;66.38
69225;DHT22;56333;51.306;17.056;2023-04-06T06:29:19;3.26;66.60
69225;DHT22;56333;51.306;17.056;2023-04-06T06:30:49;3.30;66.25
69225;DHT22;56333;51.306;17.056;2023-04-06T06:32:20;3.34;66.15
69225;DHT22;56333;51.306;17.056;2023-04-06T06:33:49;3.36;66.40
69225;DHT22;56333;51.306;17.056;2023-04-06T06:35:19;3.37;66.60
69225;DHT22;56333;51.306;17.056;2023-04-06T06:36:48;3.37;66.78
69225;DHT22;56333;51.306;17.056;2023-04-06T06:38:25;3.35;67.10
69225;DHT22;56333;51.306;17.056;2023-04-06T06:39:55;3.30;67.65
69225;DHT22;56333;51.306;17.056;2023-04-06T06:41:24;3.22;68.15
69225;DHT22;56333;51.306;17.056;2023-04-06T06:42:53;3.27;68.43
69225;DHT22;56333;51.306;17.056;2023-04-06T06:44:29;3.29;68.72
69225;DHT22;56333;51.306;17.056;2023-04-06T06:45:59;3.34;69.22
69225;DHT22;56333;51.306;17.056;2023-04-06T06:47:29;3.35;69.03
69225;DHT22;56333;51.306;17.056;2023-04-06T06:48:58;3.38;69.10
69225;DHT22;56333;51.306;17.056;2023-04-06T06:50:30;3.41;68.88
69225;DHT22;56333;51.306;17.056;2023-04-06T06:52:02;3.42;68.50
69225;DHT22;56333;51.306;17.056;2023-04-06T06:53:32;3.43;67.97
69225;DHT22;56333;51.306;17.056;2023-04-06T06:55:02;3.45;67.97
69225;DHT22;56333;51.306;17.056;2023-04-06T06:56:33;3.48;67.85
69225;DHT22;56333;51.306;17.056;2023-04-06T06:58:02;3.46;67.57
69225;DHT22;56333;51.306;17.056;2023-04-06T06:59:32;3.48;67.72
69225;DHT22;56333;51.306;17.056;2023-04-06T07:01:01;3.52;67.70
69225;DHT22;56333;51.306;17.056;2023-04-06T07:02:31;3.54;67.55
69225;DHT22;56333;51.306;17.056;2023-04-06T07:04:01;3.57;67.60
69225;DHT22;56333;51.306;17.056;2023-04-06T07:05:33;3.54;67.50
69225;DHT22;56333;51.306;17.056;2023-04-06T07:07:04;3.55;67.18
69225;DHT22;56333;51.306;17.056;2023-04-06T07:08:39;3.57;67.28
69225;DHT22;56333;51.306;17.056;2023-04-06T07:10:11;3.58;67.22
69225;DHT22;56333;51.306;17.056;2023-04-06T07:11:48;3.50;66.68
69225;DHT22;56333;51.306;17.056;2023-04-06T07:13:18;3.49;66.85
69225;DHT22;56333;51.306;17.056;2023-04-06T07:15:07;3.49;67.15
69225;DHT22;56333;51.306;17.056;2023-04-06T07:16:42;3.53;66.97
69225;DHT22;56333;51.306;17.056;2023-04-06T07:18:22;3.52;66.53
69225;DHT22;56333;51.306;17.056;2023-04-06T07:19:57;3.53;66.32
69225;DHT22;56333;51.306;17.056;2023-04-06T07:21:28;3.59;66.78
69225;DHT22;56333;51.306;17.056;2023-04-06T07:22:56;3.62;66.97
69225;DHT22;56333;51.306;17.056;2023-04-06T07:24:27;3.63;66.75
69225;DHT22;56333;51.306;17.056;2023-04-06T07:25:57;3.65;66.65
69225;DHT22;56333;51.306;17.056;2023-04-06T07:27:26;3.63;66.60
69225;DHT22;56333;51.306;17.056;2023-04-06T07:28:56;3.63;66.70
69225;DHT22;56333;51.306;17.056;2023-04-06T07:30:26;3.64;66.57
69225;DHT22;56333;51.306;17.056;2023-04-06T07:31:56;3.63;66.55
69225;DHT22;56333;51.306;17.056;2023-04-06T07:33:25;3.64;66.38
69225;DHT22;56333;51.306;17.056;2023-04-06T07:34:55;3.67;66.18
69225;DHT22;56333;51.306;17.056;2023-04-06T07:36:26;3.66;66.03
69225;DHT22;56333;51.306;17.056;2023-04-06T07:37:55;3.63;65.80
69225;DHT22;56333;51.306;17.056;2023-04-06T07:39:26;3.65;66.00
69225;DHT22;56333;51.306;17.056;2023-04-06T07:40:55;3.63;65.63
69225;DHT22;56333;51.306;17.056;2023-04-06T07:42:30;3.61;65.55
69225;DHT22;56333;51.306;17.056;2023-04-06T07:44:01;3.61;65.50
69225;DHT22;56333;51.306;17.056;2023-04-06T07:45:31;3.63;65.68
69225;DHT22;56333;51.306;17.056;2023-04-06T07:47:14;3.64;65.20
69225;DHT22;56333;51.306;17.056;2023-04-06T07:48:48;3.65;65.03
69225;DHT22;56333;51.306;17.056;2023-04-06T07:50:25;3.65;65.10
69225;DHT22;56333;51.306;17.056;2023-04-06T07:51:59;3.68;64.95
69225;DHT22;56333;51.306;17.056;2023-04-06T07:53:41;3.71;64.75
69225;DHT22;56333;51.306;17.056;2023-04-06T07:55:16;3.71;63.60
69225;DHT22;56333;51.306;17.056;2023-04-06T07:56:45;3.76;64.43
69225;DHT22;56333;51.306;17.056;2023-04-06T07:58:15;3.81;64.40
69225;DHT22;56333;51.306;17.056;2023-04-06T07:59:45;3.82;64.28
69225;DHT22;56333;51.306;17.056;2023-04-06T08:01:15;3.86;63.83
69225;DHT22;56333;51.306;17.056;2023-04-06T08:02:44;3.92;63.72
69225;DHT22;56333;51.306;17.056;2023-04-06T08:04:14;3.95;63.67
69225;DHT22;56333;51.306;17.056;2023-04-06T08:05:43;3.99;63.58
69225;DHT22;56333;51.306;17.056;2023-04-06T08:07:12;4.03;63.65
69225;DHT22;56333;51.306;17.056;2023-04-06T08:08:45;4.10;63.55
69225;DHT22;56333;51.306;17.056;2023-04-06T08:10:15;4.14;63.00
69225;DHT22;56333;51.306;17.056;2023-04-06T08:11:47;4.19;62.40
69225;DHT22;56333;51.306;17.056;2023-04-06T08:13:17;4.25;62.33
69225;DHT22;56333;51.306;17.056;2023-04-06T08:14:47;4.31;62.70
69225;DHT22;56333;51.306;17.056;2023-04-06T08:16:17;4.36;62.42
69225;DHT22;56333;51.306;17.056;2023-04-06T08:17:45;4.41;62.33
69225;DHT22;56333;51.306;17.056;2023-04-06T08:19:14;4.46;61.53
69225;DHT22;56333;51.306;17.056;2023-04-06T08:20:43;4.52;61.58
69225;DHT22;56333;51.306;17.056;2023-04-06T08:22:13;4.55;61.65
69225;DHT22;56333;51.306;17.056;2023-04-06T08:23:42;4.58;61.65
69225;DHT22;56333;51.306;17.056;2023-04-06T08:25:11;4.63;61.40
69225;DHT22;56333;51.306;17.056;2023-04-06T08:26:40;4.64;60.75
69225;DHT22;56333;51.306;17.056;2023-04-06T08:28:09;4.66;60.85
69225;DHT22;56333;51.306;17.056;2023-04-06T08:29:39;4.64;60.35
69225;DHT22;56333;51.306;17.056;2023-04-06T08:31:08;4.64;60.28
69225;DHT22;56333;51.306;17.056;2023-04-06T08:32:37;4.67;60.85
69225;DHT22;56333;51.306;17.056;2023-04-06T08:34:06;4.69;60.78
69225;DHT22;56333;51.306;17.056;2023-04-06T08:35:35;4.73;60.47
69225;DHT22;56333;51.306;17.056;2023-04-06T08:37:04;4.78;60.65
69225;DHT22;56333;51.306;17.056;2023-04-06T08:38:36;4.79;59.42
69225;DHT22;56333;51.306;17.056;2023-04-06T08:40:08;4.78;58.78
69225;DHT22;56333;51.306;17.056;2023-04-06T08:41:38;4.82;59.63
69225;DHT22;56333;51.306;17.056;2023-04-06T08:43:12;4.81;59.60
69225;DHT22;56333;51.306;17.056;2023-04-06T08:44:44;4.84;59.70
69225;DHT22;56333;51.306;17.056;2023-04-06T08:46:14;4.87;59.20
69225;DHT22;56333;51.306;17.056;2023-04-06T08:47:46;4.90;59.25
69225;DHT22;56333;51.306;17.056;2023-04-06T08:49:13;4.91;59.28
69225;DHT22;56333;51.306;17.056;2023-04-06T08:50:49;4.97;59.55
69225;DHT22;56333;51.306;17.056;2023-04-06T08:52:19;4.99;59.10
69225;DHT22;56333;51.306;17.056;2023-04-06T08:53:50;5.04;58.15
69225;DHT22;56333;51.306;17.056;2023-04-06T08:55:20;5.09;58.03
69225;DHT22;56333;51.306;17.056;2023-04-06T08:56:52;5.16;57.08
69225;DHT22;56333;51.306;17.056;2023-04-06T08:58:22;5.21;56.95
69225;DHT22;56333;51.306;17.056;2023-04-06T08:59:53;5.26;55.85
69225;DHT22;56333;51.306;17.056;2023-04-06T09:01:22;5.26;54.10
69225;DHT22;56333;51.306;17.056;2023-04-06T09:02:57;5.30;56.33
69225;DHT22;56333;51.306;17.056;2023-04-06T09:04:28;5.35;56.35
69225;DHT22;56333;51.306;17.056;2023-04-06T09:05:58;5.39;55.22
69225;DHT22;56333;51.306;17.056;2023-04-06T09:07:28;5.42;54.03
69225;DHT22;56333;51.306;17.056;2023-04-06T09:08:57;5.46;53.72
69225;DHT22;56333;51.306;17.056;2023-04-06T09:10:27;5.49;53.85
69225;DHT22;56333;51.306;17.056;2023-04-06T09:11:57;5.49;52.78
69225;DHT22;56333;51.306;17.056;2023-04-06T09:13:30;5.51;54.22
69225;DHT22;56333;51.306;17.056;2023-04-06T09:15:20;5.57;54.63
69225;DHT22;56333;51.306;17.056;2023-04-06T09:16:52;5.62;54.13
69225;DHT22;56333;51.306;17.056;2023-04-06T09:18:30;5.66;53.67
69225;DHT22;56333;51.306;17.056;2023-04-06T09:20:00;5.69;54.03
69225;DHT22;56333;51.306;17.056;2023-04-06T09:21:31;5.72;53.50
69225;DHT22;56333;51.306;17.056;2023-04-06T09:23:01;5.74;52.50
69225;DHT22;56333;51.306;17.056;2023-04-06T09:24:41;5.80;52.72
69225;DHT22;56333;51.306;17.056;2023-04-06T09:26:12;5.89;53.00
69225;DHT22;56333;51.306;17.056;2023-04-06T09:27:44;5.94;51.80
69225;DHT22;56333;51.306;17.056;2023-04-06T09:29:23;6.01;52.90
69225;DHT22;56333;51.306;17.056;2023-04-06T09:30:53;6.11;53.85
69225;DHT22;56333;51.306;17.056;2023-04-06T09:32:22;6.18;52.95
69225;DHT22;56333;51.306;17.056;2023-04-06T09:33:51;6.23;52.28
69225;DHT22;56333;51.306;17.056;2023-04-06T09:35:21;6.26;51.95